• Join FlightAware (Why Join?)
  • Login
  • US Flag 
09:06AM EDT


 

Airport Tracker/Info


-or-


 

Live Flight TrackerFlight Track Log ✈ EGF3994 ✈ 25-Apr-2013 ✈ KORD - KDAY

Flight Track Log - Related Links

Times and Time Zones

All times are in EDT time to prevent confusion due to time zone crossing. See the EGF3994 flight status page for this flight to view local times or setup timezone preferences in your user account.

Time Position Orientation Groundspeed Altitude Reporting Facility
EDT Latitude Longitude Course Direction KTS MPH feet Rate Location/Type
06:40PM 41.9333 -87.9000 90° East 176 203 1,900  Level Chicago TRACON
06:41PM 41.9000 -87.8500 132° Southeast 201 231 4,300 1,560 Climbing Chicago TRACON
06:42PM 41.9667 -87.5973 90° East  Level FlightAware Approximate
06:42PM 41.8500 -87.7667 129° Southeast 257 296 5,200  Level Chicago TRACON
06:43PM 41.9580 -87.4467 98° East  Level FlightAware Approximate
06:44PM 41.9450 -87.2964 95° East  Level FlightAware Approximate
06:44PM 41.8297 -87.5903 99° East 284 327 9,900  Level Chicago Center
06:45PM 41.9342 -87.1459 95° East  Level FlightAware Approximate
06:45PM 41.8547 -87.4806 73° East 307 353 11,800  Level Chicago Center
06:46PM 41.9333 -86.9947 90° East  Level FlightAware Approximate
06:46PM 41.8814 -87.3656 73° East 321 369 13,700  Level Chicago Center
06:48PM 41.9122 -87.2236 74° East 330 380 16,100 1,980 Climbing Chicago Center
06:49PM 41.9378 -87.1036 74° East 334 384 17,800 1,740 Climbing Chicago Center
06:50PM 41.9503 -86.9794 82° East 339 390 19,800 1,920 Climbing Chicago Center
06:51PM 41.9492 -86.8483 91° East 351 404 21,800 1,500 Climbing Chicago Center
06:52PM 41.9506 -86.7147 89° East 356 410 23,000 540 Climbing Chicago Center
06:53PM 41.9378 -86.5608 96° East 406 467 23,000  Level Chicago Center
06:54PM 41.9031 -86.3689 104° East 440 506 23,000  Level Chicago Center
06:55PM 41.8736 -86.2042 103° East 449 517 23,000  Level Chicago Center
06:56PM 41.8433 -86.0369 104° East 460 529 23,000  Level Chicago Center
06:57PM 41.8125 -85.8703 104° East 460 529 23,000  Level Chicago Center
06:58PM 41.7822 -85.7008 103° East 464 534 23,000  Level Chicago Center
06:59PM 41.7344 -85.5381 111° Southeast 471 542 23,000  Level Chicago Center
07:00PM 41.6033 -85.4514 154° Southeast 481 554 23,000 -120 Level Chicago Center
07:01PM 41.4786 -85.3969 162° South 472 543 22,800 -780 Descending Chicago Center
07:02PM 41.3544 -85.3436 162° South 471 542 21,500 -1,440 Descending Chicago Center
07:03PM 41.2058 -85.2814 163° South 469 540 19,800 -1,560 Descending Chicago Center
07:04PM 41.0872 -85.2317 162° South 455 524 18,300 -1,260 Descending Chicago Center
07:05PM 40.9744 -85.1708 158° South 445 512 17,200 -1,260 Descending Chicago Center
07:06PM 40.9047 -85.0425 126° Southeast 438 504 15,800 -1,140 Descending Chicago Center
07:07PM 40.8328 -84.9225 128° Southeast 423 487 14,900 -420 Descending Chicago Center
07:08PM 40.7503 -84.7867 129° Southeast 404 465 15,000  Climbing Chicago Center
07:09PM 40.6819 -84.6753 129° Southeast 395 455 15,000 -420 Level Chicago Center
07:10PM 40.6139 -84.5664 129° Southeast 390 449 14,200 -1,080 Descending Chicago Center
07:11PM 40.5753 -84.5022 128° Southeast 387 445 13,300 -1,440 Descending Indianapolis Center
07:12PM 40.5058 -84.3914 129° Southeast 388 447 11,900 -1,440 Descending Indianapolis Center
07:12PM 40.4650 -84.3425 138° Southeast 387 445 11,200 -900 Descending Indianapolis Center
07:13PM 40.4239 -84.3011 143° Southeast 380 437 11,000 -180 Descending Indianapolis Center
07:14PM 40.3700 -84.2447 141° Southeast 373 429 11,000  Level Indianapolis Center
07:14PM 40.3422 -84.2158 142° Southeast 374 430 11,000 -840 Level Indianapolis Center
07:15PM 40.2586 -84.1269 141° Southeast 330 380 9,800 -1,140 Descending Indianapolis Center
07:15PM 40.2361 -84.1064 145° Southeast 293 337 9,400 -1,500 Descending Indianapolis Center
07:16PM 40.1953 -84.0600 139° Southeast 302 348 8,300 -1,620 Descending Indianapolis Center
07:16PM 40.1706 -84.0350 142° Southeast 272 313 7,800 -1,500 Descending Indianapolis Center
07:17PM 40.1367 -83.9975 140° Southeast 284 327 6,800 -1,500 Descending Indianapolis Center
07:17PM 40.1142 -83.9758 144° Southeast 263 303 6,300 -1,500 Descending Indianapolis Center
07:18PM 40.0861 -83.9383 134° Southeast 260 299 5,300 -1,200 Descending Indianapolis Center
07:18PM 40.0658 -83.9231 150° Southeast 220 253 5,100 -300 Descending Indianapolis Center
07:19PM 40.0478 -83.9456 224° Southwest 218 251 5,000 -120 Descending Indianapolis Center
07:20PM 40.0253 -84.0019 242° Southwest 189 217 4,900 -240 Descending Indianapolis Center
07:20PM 40.0144 -84.0200 232° Southwest 164 189 4,700 -1,020 Descending Indianapolis Center
07:21PM 39.9978 -84.0553 238° Southwest 177 204 3,900 -1,140 Descending Indianapolis Center